sensor_id;sensor_type;location;lat;lon;timestamp;temperature;humidity
40504;DHT22;42292;49.048;8.374;2022-10-14T00:01:35;14.20;99.90
40504;DHT22;42292;49.048;8.374;2022-10-14T00:04:01;14.10;99.90
40504;DHT22;42292;49.048;8.374;2022-10-14T00:06:31;14.20;99.90
40504;DHT22;42292;49.048;8.374;2022-10-14T00:09:03;14.40;99.90
40504;DHT22;42292;49.048;8.374;2022-10-14T00:11:33;14.40;99.90
40504;DHT22;42292;49.048;8.374;2022-10-14T00:14:05;14.20;99.90
40504;DHT22;42292;49.048;8.374;2022-10-14T00:16:34;14.40;99.90
40504;DHT22;42292;49.048;8.374;2022-10-14T00:19:03;14.40;99.90
40504;DHT22;42292;49.048;8.374;2022-10-14T00:21:32;14.50;99.90
40504;DHT22;42292;49.048;8.374;2022-10-14T00:23:58;14.40;99.90
40504;DHT22;42292;49.048;8.374;2022-10-14T00:26:45;14.50;99.90
40504;DHT22;42292;49.048;8.374;2022-10-14T00:29:14;14.50;99.90
40504;DHT22;42292;49.048;8.374;2022-10-14T00:31:40;14.50;99.90
40504;DHT22;42292;49.048;8.374;2022-10-14T00:34:06;14.40;99.90
40504;DHT22;42292;49.048;8.374;2022-10-14T00:36:31;14.30;99.90
40504;DHT22;42292;49.048;8.374;2022-10-14T00:38:59;14.40;99.90
40504;DHT22;42292;49.048;8.374;2022-10-14T00:41:28;14.40;99.90
40504;DHT22;42292;49.048;8.374;2022-10-14T00:46:34;14.40;99.90
40504;DHT22;42292;49.048;8.374;2022-10-14T00:49:07;14.20;99.90
40504;DHT22;42292;49.048;8.374;2022-10-14T00:51:39;14.20;99.90
40504;DHT22;42292;49.048;8.374;2022-10-14T00:54:08;14.30;99.90
40504;DHT22;42292;49.048;8.374;2022-10-14T00:56:37;14.20;99.90
40504;DHT22;42292;49.048;8.374;2022-10-14T00:59:07;14.20;99.90
40504;DHT22;42292;49.048;8.374;2022-10-14T01:01:35;14.20;99.90
40504;DHT22;42292;49.048;8.374;2022-10-14T01:04:03;14.20;99.90
40504;DHT22;42292;49.048;8.374;2022-10-14T01:15:03;14.00;99.90
40504;DHT22;42292;49.048;8.374;2022-10-14T01:18:03;14.00;99.90
40504;DHT22;42292;49.048;8.374;2022-10-14T01:20:42;14.00;99.90
40504;DHT22;42292;49.048;8.374;2022-10-14T01:32:08;14.10;99.90
40504;DHT22;42292;49.048;8.374;2022-10-14T01:34:42;14.30;99.90
40504;DHT22;42292;49.048;8.374;2022-10-14T01:37:15;14.20;99.90
40504;DHT22;42292;49.048;8.374;2022-10-14T01:39:47;14.20;99.90
40504;DHT22;42292;49.048;8.374;2022-10-14T01:42:23;14.40;99.90
40504;DHT22;42292;49.048;8.374;2022-10-14T01:44:55;14.30;99.90
40504;DHT22;42292;49.048;8.374;2022-10-14T01:47:28;14.40;99.90
40504;DHT22;42292;49.048;8.374;2022-10-14T01:50:06;14.50;99.90
40504;DHT22;42292;49.048;8.374;2022-10-14T01:52:49;14.50;99.90
40504;DHT22;42292;49.048;8.374;2022-10-14T01:55:20;14.20;99.90
40504;DHT22;42292;49.048;8.374;2022-10-14T01:57:50;14.10;99.90
40504;DHT22;42292;49.048;8.374;2022-10-14T02:00:18;14.00;99.90
40504;DHT22;42292;49.048;8.374;2022-10-14T02:02:43;14.00;99.90
40504;DHT22;42292;49.048;8.374;2022-10-14T02:05:16;14.10;99.90
40504;DHT22;42292;49.048;8.374;2022-10-14T02:07:45;14.00;99.90
40504;DHT22;42292;49.048;8.374;2022-10-14T02:10:37;13.90;99.90
40504;DHT22;42292;49.048;8.374;2022-10-14T02:13:14;13.80;99.90
40504;DHT22;42292;49.048;8.374;2022-10-14T02:18:53;13.70;99.90
40504;DHT22;42292;49.048;8.374;2022-10-14T02:21:29;13.70;99.90
40504;DHT22;42292;49.048;8.374;2022-10-14T02:26:28;13.70;99.90
40504;DHT22;42292;49.048;8.374;2022-10-14T02:28:54;13.70;99.90
40504;DHT22;42292;49.048;8.374;2022-10-14T02:31:21;13.70;99.90
40504;DHT22;42292;49.048;8.374;2022-10-14T02:33:51;13.70;99.90
40504;DHT22;42292;49.048;8.374;2022-10-14T02:36:21;13.70;99.90
40504;DHT22;42292;49.048;8.374;2022-10-14T02:38:47;13.70;99.90
40504;DHT22;42292;49.048;8.374;2022-10-14T02:41:17;13.70;99.90
40504;DHT22;42292;49.048;8.374;2022-10-14T02:43:46;13.60;99.90
40504;DHT22;42292;49.048;8.374;2022-10-14T02:46:12;13.60;99.90
40504;DHT22;42292;49.048;8.374;2022-10-14T02:48:40;13.50;99.90
40504;DHT22;42292;49.048;8.374;2022-10-14T02:51:06;13.50;99.90
40504;DHT22;42292;49.048;8.374;2022-10-14T02:53:33;13.50;99.90
40504;DHT22;42292;49.048;8.374;2022-10-14T02:56:02;13.50;99.90
40504;DHT22;42292;49.048;8.374;2022-10-14T02:58:27;13.50;99.90
40504;DHT22;42292;49.048;8.374;2022-10-14T03:00:55;13.50;99.90
40504;DHT22;42292;49.048;8.374;2022-10-14T03:03:21;13.60;99.90
40504;DHT22;42292;49.048;8.374;2022-10-14T03:05:46;13.60;99.90
40504;DHT22;42292;49.048;8.374;2022-10-14T03:08:14;13.60;99.90
40504;DHT22;42292;49.048;8.374;2022-10-14T03:10:45;13.60;99.90
40504;DHT22;42292;49.048;8.374;2022-10-14T03:13:14;13.50;99.90
40504;DHT22;42292;49.048;8.374;2022-10-14T03:15:42;13.60;99.90
40504;DHT22;42292;49.048;8.374;2022-10-14T03:18:08;13.60;99.90
40504;DHT22;42292;49.048;8.374;2022-10-14T03:20:33;13.70;99.90
40504;DHT22;42292;49.048;8.374;2022-10-14T03:23:01;13.70;99.90
40504;DHT22;42292;49.048;8.374;2022-10-14T03:25:29;13.70;99.90
40504;DHT22;42292;49.048;8.374;2022-10-14T03:27:57;13.70;99.90
40504;DHT22;42292;49.048;8.374;2022-10-14T03:30:29;13.70;99.90
40504;DHT22;42292;49.048;8.374;2022-10-14T03:32:57;13.80;99.90
40504;DHT22;42292;49.048;8.374;2022-10-14T03:35:23;13.80;99.90
40504;DHT22;42292;49.048;8.374;2022-10-14T03:37:49;13.80;99.90
40504;DHT22;42292;49.048;8.374;2022-10-14T03:40:17;13.80;99.90
40504;DHT22;42292;49.048;8.374;2022-10-14T03:42:42;13.80;99.90
40504;DHT22;42292;49.048;8.374;2022-10-14T03:45:11;13.70;99.90
40504;DHT22;42292;49.048;8.374;2022-10-14T03:47:37;13.70;99.90
40504;DHT22;42292;49.048;8.374;2022-10-14T03:50:05;13.70;99.90
40504;DHT22;42292;49.048;8.374;2022-10-14T03:52:31;13.70;99.90
40504;DHT22;42292;49.048;8.374;2022-10-14T03:54:57;13.60;99.90
40504;DHT22;42292;49.048;8.374;2022-10-14T03:57:22;13.60;99.90
40504;DHT22;42292;49.048;8.374;2022-10-14T03:59:50;13.60;99.90
40504;DHT22;42292;49.048;8.374;2022-10-14T04:02:18;13.50;99.90
40504;DHT22;42292;49.048;8.374;2022-10-14T04:04:46;13.50;99.90
40504;DHT22;42292;49.048;8.374;2022-10-14T04:07:14;13.50;99.90
40504;DHT22;42292;49.048;8.374;2022-10-14T04:09:39;13.50;99.90
40504;DHT22;42292;49.048;8.374;2022-10-14T04:12:10;13.40;99.90
40504;DHT22;42292;49.048;8.374;2022-10-14T04:14:36;13.30;99.90
40504;DHT22;42292;49.048;8.374;2022-10-14T04:17:01;13.20;99.90
40504;DHT22;42292;49.048;8.374;2022-10-14T04:19:27;13.10;99.90
40504;DHT22;42292;49.048;8.374;2022-10-14T04:21:55;13.00;99.90
40504;DHT22;42292;49.048;8.374;2022-10-14T04:24:21;12.90;99.90
40504;DHT22;42292;49.048;8.374;2022-10-14T04:26:49;12.80;99.90
40504;DHT22;42292;49.048;8.374;2022-10-14T04:29:15;12.70;99.90
40504;DHT22;42292;49.048;8.374;2022-10-14T04:31:41;12.70;99.90
40504;DHT22;42292;49.048;8.374;2022-10-14T04:34:09;12.60;99.90
40504;DHT22;42292;49.048;8.374;2022-10-14T04:36:35;12.50;99.90
40504;DHT22;42292;49.048;8.374;2022-10-14T04:39:01;12.50;99.90
40504;DHT22;42292;49.048;8.374;2022-10-14T04:41:26;12.50;99.90
40504;DHT22;42292;49.048;8.374;2022-10-14T04:43:54;12.50;99.90
40504;DHT22;42292;49.048;8.374;2022-10-14T04:46:22;12.60;99.90
40504;DHT22;42292;49.048;8.374;2022-10-14T04:48:50;12.60;99.90
40504;DHT22;42292;49.048;8.374;2022-10-14T04:51:18;12.60;99.90
40504;DHT22;42292;49.048;8.374;2022-10-14T04:53:46;12.60;99.90
40504;DHT22;42292;49.048;8.374;2022-10-14T04:56:14;12.70;99.90
40504;DHT22;42292;49.048;8.374;2022-10-14T04:58:40;12.60;99.90
40504;DHT22;42292;49.048;8.374;2022-10-14T05:01:05;12.70;99.90
40504;DHT22;42292;49.048;8.374;2022-10-14T05:03:34;12.70;99.90
40504;DHT22;42292;49.048;8.374;2022-10-14T05:05:59;12.70;99.90
40504;DHT22;42292;49.048;8.374;2022-10-14T05:08:25;12.70;99.90
40504;DHT22;42292;49.048;8.374;2022-10-14T05:10:52;12.70;99.90
40504;DHT22;42292;49.048;8.374;2022-10-14T05:13:18;12.60;99.90
40504;DHT22;42292;49.048;8.374;2022-10-14T05:15:46;12.60;99.90
40504;DHT22;42292;49.048;8.374;2022-10-14T05:18:12;12.60;99.90
40504;DHT22;42292;49.048;8.374;2022-10-14T05:20:40;12.60;99.90
40504;DHT22;42292;49.048;8.374;2022-10-14T05:23:10;12.60;99.90
40504;DHT22;42292;49.048;8.374;2022-10-14T05:25:36;12.70;99.90
40504;DHT22;42292;49.048;8.374;2022-10-14T05:28:01;12.70;99.90
40504;DHT22;42292;49.048;8.374;2022-10-14T05:30:27;12.70;99.90
40504;DHT22;42292;49.048;8.374;2022-10-14T05:32:53;12.80;99.90
40504;DHT22;42292;49.048;8.374;2022-10-14T05:35:18;12.80;99.90
40504;DHT22;42292;49.048;8.374;2022-10-14T05:37:44;12.80;99.90
40504;DHT22;42292;49.048;8.374;2022-10-14T05:40:10;12.90;99.90
40504;DHT22;42292;49.048;8.374;2022-10-14T05:42:36;12.90;99.90
40504;DHT22;42292;49.048;8.374;2022-10-14T05:45:01;12.90;99.90
40504;DHT22;42292;49.048;8.374;2022-10-14T05:47:29;12.90;99.90
40504;DHT22;42292;49.048;8.374;2022-10-14T05:49:54;12.90;99.90
40504;DHT22;42292;49.048;8.374;2022-10-14T05:52:20;13.00;99.90
40504;DHT22;42292;49.048;8.374;2022-10-14T05:54:46;13.00;99.90
40504;DHT22;42292;49.048;8.374;2022-10-14T05:57:13;13.00;99.90
40504;DHT22;42292;49.048;8.374;2022-10-14T05:59:39;13.10;99.90
40504;DHT22;42292;49.048;8.374;2022-10-14T06:02:07;13.10;99.90
40504;DHT22;42292;49.048;8.374;2022-10-14T06:04:36;13.20;99.90
40504;DHT22;42292;49.048;8.374;2022-10-14T06:07:05;13.20;99.90
40504;DHT22;42292;49.048;8.374;2022-10-14T06:09:33;13.30;99.90
40504;DHT22;42292;49.048;8.374;2022-10-14T06:12:04;13.30;99.90
40504;DHT22;42292;49.048;8.374;2022-10-14T06:14:29;13.30;99.90
40504;DHT22;42292;49.048;8.374;2022-10-14T06:16:57;13.40;99.90
40504;DHT22;42292;49.048;8.374;2022-10-14T06:19:23;13.50;99.90
40504;DHT22;42292;49.048;8.374;2022-10-14T06:21:53;13.50;99.90
40504;DHT22;42292;49.048;8.374;2022-10-14T06:24:19;13.60;99.90
40504;DHT22;42292;49.048;8.374;2022-10-14T06:26:44;13.70;99.90
40504;DHT22;42292;49.048;8.374;2022-10-14T06:29:10;13.80;99.90
40504;DHT22;42292;49.048;8.374;2022-10-14T06:31:35;14.00;99.90
40504;DHT22;42292;49.048;8.374;2022-10-14T06:34:04;14.10;99.90
40504;DHT22;42292;49.048;8.374;2022-10-14T06:36:35;14.30;99.90
40504;DHT22;42292;49.048;8.374;2022-10-14T06:39:02;14.40;99.90
40504;DHT22;42292;49.048;8.374;2022-10-14T06:41:30;14.40;99.90
40504;DHT22;42292;49.048;8.374;2022-10-14T06:43:57;14.50;99.90
40504;DHT22;42292;49.048;8.374;2022-10-14T06:46:27;14.50;99.90
40504;DHT22;42292;49.048;8.374;2022-10-14T06:48:56;14.60;99.90
40504;DHT22;42292;49.048;8.374;2022-10-14T06:51:26;14.70;99.90
40504;DHT22;42292;49.048;8.374;2022-10-14T06:53:54;14.90;99.90
40504;DHT22;42292;49.048;8.374;2022-10-14T06:56:20;15.10;99.90
40504;DHT22;42292;49.048;8.374;2022-10-14T06:58:48;15.20;99.90
40504;DHT22;42292;49.048;8.374;2022-10-14T07:01:17;15.40;99.90
40504;DHT22;42292;49.048;8.374;2022-10-14T07:03:42;15.40;99.90
40504;DHT22;42292;49.048;8.374;2022-10-14T07:06:08;15.50;99.90
40504;DHT22;42292;49.048;8.374;2022-10-14T07:08:34;15.60;99.90
40504;DHT22;42292;49.048;8.374;2022-10-14T07:10:59;15.70;99.90
40504;DHT22;42292;49.048;8.374;2022-10-14T07:13:27;15.70;99.90
40504;DHT22;42292;49.048;8.374;2022-10-14T07:15:53;15.70;99.90
40504;DHT22;42292;49.048;8.374;2022-10-14T07:18:19;16.00;99.90
40504;DHT22;42292;49.048;8.374;2022-10-14T07:20:44;15.90;99.90
40504;DHT22;42292;49.048;8.374;2022-10-14T07:23:11;15.90;99.90
40504;DHT22;42292;49.048;8.374;2022-10-14T07:25:41;15.90;99.90
40504;DHT22;42292;49.048;8.374;2022-10-14T07:28:07;16.10;99.90
40504;DHT22;42292;49.048;8.374;2022-10-14T07:30:35;16.10;99.90
40504;DHT22;42292;49.048;8.374;2022-10-14T07:33:01;16.20;99.90
40504;DHT22;42292;49.048;8.374;2022-10-14T07:35:27;16.20;99.90
40504;DHT22;42292;49.048;8.374;2022-10-14T07:37:53;16.20;99.90
40504;DHT22;42292;49.048;8.374;2022-10-14T07:40:21;16.30;99.90
40504;DHT22;42292;49.048;8.374;2022-10-14T07:42:47;16.20;99.90
40504;DHT22;42292;49.048;8.374;2022-10-14T07:45:15;16.00;99.90
40504;DHT22;42292;49.048;8.374;2022-10-14T07:47:46;16.20;99.90
40504;DHT22;42292;49.048;8.374;2022-10-14T07:50:19;16.10;99.90
40504;DHT22;42292;49.048;8.374;2022-10-14T07:52:45;16.20;99.90
40504;DHT22;42292;49.048;8.374;2022-10-14T07:55:13;16.50;99.90
40504;DHT22;42292;49.048;8.374;2022-10-14T07:57:39;16.70;99.90
40504;DHT22;42292;49.048;8.374;2022-10-14T08:00:07;16.80;99.90
40504;DHT22;42292;49.048;8.374;2022-10-14T08:02:33;16.90;99.90
40504;DHT22;42292;49.048;8.374;2022-10-14T08:05:02;17.00;99.90
40504;DHT22;42292;49.048;8.374;2022-10-14T08:07:28;17.00;99.90
40504;DHT22;42292;49.048;8.374;2022-10-14T08:09:53;17.10;99.90
40504;DHT22;42292;49.048;8.374;2022-10-14T08:12:19;16.70;99.90
40504;DHT22;42292;49.048;8.374;2022-10-14T08:14:45;16.70;99.90
40504;DHT22;42292;49.048;8.374;2022-10-14T08:17:10;16.80;99.90
40504;DHT22;42292;49.048;8.374;2022-10-14T08:19:38;16.80;99.90
40504;DHT22;42292;49.048;8.374;2022-10-14T08:22:04;16.90;99.90
40504;DHT22;42292;49.048;8.374;2022-10-14T08:24:29;16.70;99.90
40504;DHT22;42292;49.048;8.374;2022-10-14T08:26:56;16.80;99.90
40504;DHT22;42292;49.048;8.374;2022-10-14T08:29:23;17.00;99.90
40504;DHT22;42292;49.048;8.374;2022-10-14T08:31:51;17.00;99.90
40504;DHT22;42292;49.048;8.374;2022-10-14T08:34:18;16.90;99.90
40504;DHT22;42292;49.048;8.374;2022-10-14T08:36:46;16.90;99.90
40504;DHT22;42292;49.048;8.374;2022-10-14T08:39:12;16.80;99.90
40504;DHT22;42292;49.048;8.374;2022-10-14T08:45:00;17.40;99.90
40504;DHT22;42292;49.048;8.374;2022-10-14T08:47:40;17.80;99.90
40504;DHT22;42292;49.048;8.374;2022-10-14T08:53:18;18.30;99.90
40504;DHT22;42292;49.048;8.374;2022-10-14T08:55:52;18.20;99.90
40504;DHT22;42292;49.048;8.374;2022-10-14T08:58:36;18.10;99.90
40504;DHT22;42292;49.048;8.374;2022-10-14T09:03:56;18.00;99.90
40504;DHT22;42292;49.048;8.374;2022-10-14T09:06:28;17.90;99.90
40504;DHT22;42292;49.048;8.374;2022-10-14T09:08:58;18.00;99.90
40504;DHT22;42292;49.048;8.374;2022-10-14T09:11:32;18.30;99.90
40504;DHT22;42292;49.048;8.374;2022-10-14T09:14:02;18.20;99.90
40504;DHT22;42292;49.048;8.374;2022-10-14T09:16:34;18.30;99.90
40504;DHT22;42292;49.048;8.374;2022-10-14T09:19:06;18.40;99.90
40504;DHT22;42292;49.048;8.374;2022-10-14T09:21:48;18.60;99.90
40504;DHT22;42292;49.048;8.374;2022-10-14T09:24:18;18.70;99.90
40504;DHT22;42292;49.048;8.374;2022-10-14T09:26:47;18.60;99.90
40504;DHT22;42292;49.048;8.374;2022-10-14T09:29:41;18.70;99.90
40504;DHT22;42292;49.048;8.374;2022-10-14T09:32:38;18.80;99.90
40504;DHT22;42292;49.048;8.374;2022-10-14T09:35:01;18.70;99.90
40504;DHT22;42292;49.048;8.374;2022-10-14T09:37:31;18.90;99.90
40504;DHT22;42292;49.048;8.374;2022-10-14T09:45:25;19.70;99.90
40504;DHT22;42292;49.048;8.374;2022-10-14T09:47:59;19.20;99.90
40504;DHT22;42292;49.048;8.374;2022-10-14T09:50:42;19.40;99.90
40504;DHT22;42292;49.048;8.374;2022-10-14T09:56:04;19.10;99.90
40504;DHT22;42292;49.048;8.374;2022-10-14T10:01:14;19.10;99.90
40504;DHT22;42292;49.048;8.374;2022-10-14T10:03:44;18.90;99.90
40504;DHT22;42292;49.048;8.374;2022-10-14T10:06:14;18.90;99.90
40504;DHT22;42292;49.048;8.374;2022-10-14T10:11:26;18.80;99.90
40504;DHT22;42292;49.048;8.374;2022-10-14T10:13:53;18.50;99.90
40504;DHT22;42292;49.048;8.374;2022-10-14T10:16:27;18.30;99.90
40504;DHT22;42292;49.048;8.374;2022-10-14T10:18:56;18.20;99.90
40504;DHT22;42292;49.048;8.374;2022-10-14T10:21:27;18.00;99.90
40504;DHT22;42292;49.048;8.374;2022-10-14T10:24:01;17.70;99.90
40504;DHT22;42292;49.048;8.374;2022-10-14T10:28:57;18.00;99.90
40504;DHT22;42292;49.048;8.374;2022-10-14T10:34:34;17.80;99.90
40504;DHT22;42292;49.048;8.374;2022-10-14T10:37:25;17.70;99.90
40504;DHT22;42292;49.048;8.374;2022-10-14T10:51:04;17.80;99.90
40504;DHT22;42292;49.048;8.374;2022-10-14T10:56:49;18.10;99.90
40504;DHT22;42292;49.048;8.374;2022-10-14T11:08:20;18.70;99.90
40504;DHT22;42292;49.048;8.374;2022-10-14T11:11:23;18.20;99.90
40504;DHT22;42292;49.048;8.374;2022-10-14T11:17:39;18.30;99.90
40504;DHT22;42292;49.048;8.374;2022-10-14T11:20:19;18.30;99.90
40504;DHT22;42292;49.048;8.374;2022-10-14T11:40:04;19.70;99.90
40504;DHT22;42292;49.048;8.374;2022-10-14T11:43:08;19.70;99.90
40504;DHT22;42292;49.048;8.374;2022-10-14T11:46:06;19.70;99.90
40504;DHT22;42292;49.048;8.374;2022-10-14T11:53:51;19.40;99.90
40504;DHT22;42292;49.048;8.374;2022-10-14T12:02:24;19.30;99.90
40504;DHT22;42292;49.048;8.374;2022-10-14T12:05:14;19.00;99.90
40504;DHT22;42292;49.048;8.374;2022-10-14T12:10:54;19.10;99.90
40504;DHT22;42292;49.048;8.374;2022-10-14T12:13:32;19.30;99.90
40504;DHT22;42292;49.048;8.374;2022-10-14T12:15:58;19.20;99.90
40504;DHT22;42292;49.048;8.374;2022-10-14T12:18:26;18.90;99.90
40504;DHT22;42292;49.048;8.374;2022-10-14T12:20:54;18.80;99.90
40504;DHT22;42292;49.048;8.374;2022-10-14T12:28:44;18.60;99.90
40504;DHT22;42292;49.048;8.374;2022-10-14T12:36:35;18.60;99.90
40504;DHT22;42292;49.048;8.374;2022-10-14T12:39:21;18.60;99.90
40504;DHT22;42292;49.048;8.374;2022-10-14T12:42:00;19.00;99.90
40504;DHT22;42292;49.048;8.374;2022-10-14T12:44:47;19.30;99.90
40504;DHT22;42292;49.048;8.374;2022-10-14T12:47:19;19.00;99.90
40504;DHT22;42292;49.048;8.374;2022-10-14T12:49:50;18.60;99.90
40504;DHT22;42292;49.048;8.374;2022-10-14T12:52:25;18.70;99.90
40504;DHT22;42292;49.048;8.374;2022-10-14T12:54:57;18.60;99.90
40504;DHT22;42292;49.048;8.374;2022-10-14T12:57:31;18.60;99.90
40504;DHT22;42292;49.048;8.374;2022-10-14T13:00:04;19.00;99.90
40504;DHT22;42292;49.048;8.374;2022-10-14T13:02:33;18.90;99.90
40504;DHT22;42292;49.048;8.374;2022-10-14T13:05:05;19.00;99.90
40504;DHT22;42292;49.048;8.374;2022-10-14T13:12:52;18.90;99.90
40504;DHT22;42292;49.048;8.374;2022-10-14T13:20:53;18.60;99.90
40504;DHT22;42292;49.048;8.374;2022-10-14T13:26:40;18.50;99.90
40504;DHT22;42292;49.048;8.374;2022-10-14T13:32:10;18.40;99.90
40504;DHT22;42292;49.048;8.374;2022-10-14T13:35:09;18.30;99.90
40504;DHT22;42292;49.048;8.374;2022-10-14T13:37:37;18.20;99.90
40504;DHT22;42292;49.048;8.374;2022-10-14T13:42:34;18.10;99.90
40504;DHT22;42292;49.048;8.374;2022-10-14T13:45:05;18.00;99.90
40504;DHT22;42292;49.048;8.374;2022-10-14T13:47:33;17.40;99.90
40504;DHT22;42292;49.048;8.374;2022-10-14T13:50:03;17.20;99.90
40504;DHT22;42292;49.048;8.374;2022-10-14T13:52:33;16.90;99.90
40504;DHT22;42292;49.048;8.374;2022-10-14T13:57:36;16.20;99.90
40504;DHT22;42292;49.048;8.374;2022-10-14T14:00:30;15.80;99.90
40504;DHT22;42292;49.048;8.374;2022-10-14T14:03:02;15.90;99.90
40504;DHT22;42292;49.048;8.374;2022-10-14T14:05:34;16.00;99.90
40504;DHT22;42292;49.048;8.374;2022-10-14T14:08:01;16.00;99.90
40504;DHT22;42292;49.048;8.374;2022-10-14T14:10:30;15.90;99.90
40504;DHT22;42292;49.048;8.374;2022-10-14T14:12:59;15.90;99.90
40504;DHT22;42292;49.048;8.374;2022-10-14T14:15:28;16.10;99.90
40504;DHT22;42292;49.048;8.374;2022-10-14T14:17:56;16.10;99.90
40504;DHT22;42292;49.048;8.374;2022-10-14T14:20:24;16.10;99.90
40504;DHT22;42292;49.048;8.374;2022-10-14T14:22:57;16.20;99.90
40504;DHT22;42292;49.048;8.374;2022-10-14T14:25:25;16.20;99.90
40504;DHT22;42292;49.048;8.374;2022-10-14T14:27:55;15.90;99.90
40504;DHT22;42292;49.048;8.374;2022-10-14T14:30:45;15.90;99.90
40504;DHT22;42292;49.048;8.374;2022-10-14T14:33:15;16.00;99.90
40504;DHT22;42292;49.048;8.374;2022-10-14T14:35:53;16.00;99.90
40504;DHT22;42292;49.048;8.374;2022-10-14T14:38:56;16.30;99.90
40504;DHT22;42292;49.048;8.374;2022-10-14T14:41:25;16.50;99.90
40504;DHT22;42292;49.048;8.374;2022-10-14T14:44:02;16.40;99.90
40504;DHT22;42292;49.048;8.374;2022-10-14T14:46:32;16.30;99.90
40504;DHT22;42292;49.048;8.374;2022-10-14T14:49:02;16.30;99.90
40504;DHT22;42292;49.048;8.374;2022-10-14T14:51:35;16.40;99.90
40504;DHT22;42292;49.048;8.374;2022-10-14T14:54:02;16.40;99.90
40504;DHT22;42292;49.048;8.374;2022-10-14T14:56:37;16.40;99.90
40504;DHT22;42292;49.048;8.374;2022-10-14T15:02:10;16.40;99.90
40504;DHT22;42292;49.048;8.374;2022-10-14T15:04:37;16.50;99.90
40504;DHT22;42292;49.048;8.374;2022-10-14T15:07:11;16.60;99.90
40504;DHT22;42292;49.048;8.374;2022-10-14T15:09:47;16.60;99.90
40504;DHT22;42292;49.048;8.374;2022-10-14T15:12:22;16.70;99.90
40504;DHT22;42292;49.048;8.374;2022-10-14T15:14:50;16.70;99.90
40504;DHT22;42292;49.048;8.374;2022-10-14T15:17:32;16.90;99.90
40504;DHT22;42292;49.048;8.374;2022-10-14T15:22:42;17.00;99.90
40504;DHT22;42292;49.048;8.374;2022-10-14T15:28:04;17.00;99.90
40504;DHT22;42292;49.048;8.374;2022-10-14T15:33:14;17.00;99.90
40504;DHT22;42292;49.048;8.374;2022-10-14T15:35:43;16.80;99.90
40504;DHT22;42292;49.048;8.374;2022-10-14T15:38:11;16.80;99.90
40504;DHT22;42292;49.048;8.374;2022-10-14T15:40:40;16.90;99.90
40504;DHT22;42292;49.048;8.374;2022-10-14T15:43:23;16.90;99.90
40504;DHT22;42292;49.048;8.374;2022-10-14T15:45:51;16.80;99.90
40504;DHT22;42292;49.048;8.374;2022-10-14T15:48:50;16.80;99.90
40504;DHT22;42292;49.048;8.374;2022-10-14T15:51:20;16.90;99.90
40504;DHT22;42292;49.048;8.374;2022-10-14T15:53:48;16.80;99.90
40504;DHT22;42292;49.048;8.374;2022-10-14T15:56:13;16.80;99.90
40504;DHT22;42292;49.048;8.374;2022-10-14T15:58:41;16.90;99.90
40504;DHT22;42292;49.048;8.374;2022-10-14T16:01:23;16.80;99.90
40504;DHT22;42292;49.048;8.374;2022-10-14T16:03:49;16.80;99.90
40504;DHT22;42292;49.048;8.374;2022-10-14T16:06:17;16.70;99.90
40504;DHT22;42292;49.048;8.374;2022-10-14T16:08:43;16.80;99.90
40504;DHT22;42292;49.048;8.374;2022-10-14T16:11:25;16.70;99.90
40504;DHT22;42292;49.048;8.374;2022-10-14T16:13:54;16.70;99.90
40504;DHT22;42292;49.048;8.374;2022-10-14T16:16:26;16.60;99.90
40504;DHT22;42292;49.048;8.374;2022-10-14T16:18:53;16.60;99.90
40504;DHT22;42292;49.048;8.374;2022-10-14T16:21:18;16.50;99.90
40504;DHT22;42292;49.048;8.374;2022-10-14T16:23:44;16.50;99.90
40504;DHT22;42292;49.048;8.374;2022-10-14T16:26:10;16.50;99.90
40504;DHT22;42292;49.048;8.374;2022-10-14T16:28:37;16.40;99.90
40504;DHT22;42292;49.048;8.374;2022-10-14T16:31:03;16.30;99.90
40504;DHT22;42292;49.048;8.374;2022-10-14T16:33:29;16.30;99.90
40504;DHT22;42292;49.048;8.374;2022-10-14T16:35:55;16.30;99.90
40504;DHT22;42292;49.048;8.374;2022-10-14T16:38:22;16.30;99.90
40504;DHT22;42292;49.048;8.374;2022-10-14T16:40:55;16.40;99.90
40504;DHT22;42292;49.048;8.374;2022-10-14T16:43:21;16.40;99.90
40504;DHT22;42292;49.048;8.374;2022-10-14T16:45:47;16.30;99.90
40504;DHT22;42292;49.048;8.374;2022-10-14T16:48:14;16.40;99.90
40504;DHT22;42292;49.048;8.374;2022-10-14T16:50:51;16.30;99.90
40504;DHT22;42292;49.048;8.374;2022-10-14T16:53:17;16.30;99.90
40504;DHT22;42292;49.048;8.374;2022-10-14T16:56:01;16.40;99.90
40504;DHT22;42292;49.048;8.374;2022-10-14T16:58:27;16.40;99.90
40504;DHT22;42292;49.048;8.374;2022-10-14T17:00:53;16.50;99.90
40504;DHT22;42292;49.048;8.374;2022-10-14T17:03:19;16.40;99.90
40504;DHT22;42292;49.048;8.374;2022-10-14T17:05:47;16.40;99.90
40504;DHT22;42292;49.048;8.374;2022-10-14T17:08:16;16.40;99.90
40504;DHT22;42292;49.048;8.374;2022-10-14T17:10:41;16.30;99.90
40504;DHT22;42292;49.048;8.374;2022-10-14T17:13:07;16.30;99.90
40504;DHT22;42292;49.048;8.374;2022-10-14T17:15:32;16.40;99.90
40504;DHT22;42292;49.048;8.374;2022-10-14T17:17:58;16.40;99.90
40504;DHT22;42292;49.048;8.374;2022-10-14T17:20:23;16.30;99.90
40504;DHT22;42292;49.048;8.374;2022-10-14T17:22:50;16.20;99.90
40504;DHT22;42292;49.048;8.374;2022-10-14T17:25:18;16.20;99.90
40504;DHT22;42292;49.048;8.374;2022-10-14T17:27:46;16.10;99.90
40504;DHT22;42292;49.048;8.374;2022-10-14T17:30:12;16.10;99.90
40504;DHT22;42292;49.048;8.374;2022-10-14T17:32:37;16.20;99.90
40504;DHT22;42292;49.048;8.374;2022-10-14T17:35:03;16.10;99.90
40504;DHT22;42292;49.048;8.374;2022-10-14T17:37:29;16.20;99.90
40504;DHT22;42292;49.048;8.374;2022-10-14T17:40:00;16.10;99.90
40504;DHT22;42292;49.048;8.374;2022-10-14T17:42:28;16.10;99.90
40504;DHT22;42292;49.048;8.374;2022-10-14T17:44:55;16.10;99.90
40504;DHT22;42292;49.048;8.374;2022-10-14T17:47:23;16.10;99.90
40504;DHT22;42292;49.048;8.374;2022-10-14T17:49:48;16.00;99.90
40504;DHT22;42292;49.048;8.374;2022-10-14T17:52:15;16.10;99.90
40504;DHT22;42292;49.048;8.374;2022-10-14T17:54:41;16.10;99.90
40504;DHT22;42292;49.048;8.374;2022-10-14T17:57:07;16.20;99.90
40504;DHT22;42292;49.048;8.374;2022-10-14T17:59:37;16.30;99.90
40504;DHT22;42292;49.048;8.374;2022-10-14T18:02:02;16.40;99.90
40504;DHT22;42292;49.048;8.374;2022-10-14T18:04:29;16.30;99.90
40504;DHT22;42292;49.048;8.374;2022-10-14T18:06:54;16.30;99.90
40504;DHT22;42292;49.048;8.374;2022-10-14T18:09:20;16.20;99.90
40504;DHT22;42292;49.048;8.374;2022-10-14T18:11:46;16.20;99.90
40504;DHT22;42292;49.048;8.374;2022-10-14T18:14:13;16.30;99.90
40504;DHT22;42292;49.048;8.374;2022-10-14T18:16:41;16.30;99.90
40504;DHT22;42292;49.048;8.374;2022-10-14T18:19:10;16.30;99.90
40504;DHT22;42292;49.048;8.374;2022-10-14T18:21:37;16.30;99.90
40504;DHT22;42292;49.048;8.374;2022-10-14T18:24:04;16.20;99.90